Terminal Aerodrome Forecast
Issued by NWS Bismarck, ND

Home | Current Version | Previous Version | Graphics & Text | Print | Product List | Glossary On
Versions: 1 2 3 4 5 6 7 8 9 10 11 12 13 14 15 16 17 18 19 20
000
FTUS43 KBIS 250200 AAA
TAFBIS
TAF AMD
KBIS 250218Z 2502/2524 29005KT P6SM BKN070 OVC100
     FM250600 33005KT P6SM SCT020 OVC120
     FM251000 34004KT 5SM -SHSN BR BKN007 OVC015
     FM251600 35011KT P6SM -SHSN OVC015=

USA.gov is the U.S. government's official web portal to all federal, state and local government web resources and services.